Terminal Aerodrome Forecast
Issued by NWS Memphis, TN

Home | Current Version | Previous Version | Text Only | Print | Product List | Glossary On
Versions: 1 2 3 4 5 6 7 8 9 10 11 12 13 14 15
020
FTUS44 KMEG 111129
TAFMKL
TAF
KMKL 111129Z 1112/1212 22007KT P6SM SKC
     FM111800 22011G18KT P6SM SKC
     FM112300 22011KT P6SM SCT150
     FM120400 30011G18KT P6SM SCT035 BKN150
      TEMPO 1208/1212 BKN035=

USA.gov is the U.S. government's official web portal to all federal, state and local government web resources and services.